createdAt,value
2022-09-23T03:57:25.690Z,100785.22
2022-09-23T04:00:27.970Z,100785.13
2022-09-23T04:03:30.393Z,100790.91
2022-09-23T04:06:32.430Z,100792.59
2022-09-23T04:09:35.130Z,100788.47
2022-09-23T04:12:38.004Z,100784.59
2022-09-23T04:15:40.848Z,100784.84
2022-09-23T04:18:42.934Z,100791.00
2022-09-23T04:21:46.107Z,100792.16
2022-09-23T04:24:48.607Z,100790.78
2022-09-23T04:27:50.890Z,100787.06
2022-09-23T04:30:53.940Z,100790.72
2022-09-23T04:33:56.513Z,100795.81
2022-09-23T04:36:58.606Z,100788.28
2022-09-23T04:40:01.060Z,100795.09
2022-09-23T04:43:03.171Z,100796.25
2022-09-23T04:46:07.365Z,100795.66
2022-09-23T04:49:09.592Z,100792.66
2022-09-23T04:52:12.118Z,100802.87
2022-09-23T04:55:14.218Z,100801.56
2022-09-23T04:58:16.485Z,100806.09
2022-09-23T05:01:25.148Z,100795.19
2022-09-23T05:04:27.520Z,100803.88
2022-09-23T05:07:29.911Z,100817.81
2022-09-23T05:10:32.212Z,100817.16
2022-09-23T05:13:35.315Z,100811.91
2022-09-23T05:16:37.654Z,100821.31
2022-09-23T05:19:39.720Z,100817.31
2022-09-23T05:22:42.018Z,100821.47
2022-09-23T05:25:45.153Z,100822.69
2022-09-23T05:28:47.742Z,100824.28
2022-09-23T05:31:49.840Z,100833.75
2022-09-23T05:34:55.589Z,100829.66
2022-09-23T05:37:57.758Z,100833.44
2022-09-23T05:41:03.219Z,100833.25
2022-09-23T05:44:05.253Z,100831.72
2022-09-23T05:47:07.626Z,100839.53
2022-09-23T05:50:10.026Z,100840.75
2022-09-23T05:53:12.351Z,100830.47
2022-09-23T05:56:22.298Z,100829.84
2022-09-23T05:59:24.617Z,100829.31
2022-09-23T06:02:26.678Z,100825.38
2022-09-23T06:05:30.921Z,100831.06
2022-09-23T06:08:37.669Z,100826.34
2022-09-23T06:11:41.173Z,100830.59
2022-09-23T06:14:43.208Z,100823.25
2022-09-23T06:17:46.616Z,100826.91
2022-09-23T06:20:48.637Z,100827.34
2022-09-23T06:23:54.884Z,100827.84
2022-09-23T06:26:57.896Z,100824.97
2022-09-23T06:30:00.191Z,100827.94
2022-09-23T06:33:02.275Z,100825.66
2022-09-23T06:36:07.287Z,100830.22
2022-09-23T06:39:09.482Z,100825.41
2022-09-23T06:42:11.790Z,100824.88
2022-09-23T06:45:15.280Z,100832.25
2022-09-23T06:48:17.566Z,100830.37
2022-09-23T06:51:19.594Z,100835.97
2022-09-23T06:54:22.060Z,100841.00
2022-09-23T06:57:24.361Z,100843.22
2022-09-23T07:00:26.640Z,100837.50
2022-09-23T07:03:29.136Z,100834.38
2022-09-23T07:06:31.416Z,100833.13
2022-09-23T07:09:33.977Z,100827.50
2022-09-23T07:12:36.716Z,100834.78
2022-09-23T07:15:38.795Z,100831.72
2022-09-23T07:18:41.263Z,100829.31
2022-09-23T07:21:43.361Z,100828.03
2022-09-23T07:24:46.586Z,100828.34
2022-09-23T07:27:48.919Z,100831.19
2022-09-23T07:30:58.816Z,100831.38
2022-09-23T07:34:02.478Z,100825.47
2022-09-23T07:37:05.183Z,100831.38
2022-09-23T07:40:07.796Z,100834.16
2022-09-23T07:43:10.215Z,100835.31
2022-09-23T07:46:17.637Z,100832.84
2022-09-23T07:49:20.415Z,100830.22
2022-09-23T07:52:22.473Z,100838.16
2022-09-23T07:55:24.766Z,100829.59
2022-09-23T07:58:26.820Z,100825.28
2022-09-23T08:01:37.878Z,100829.69
2022-09-23T08:04:40.451Z,100833.34
2022-09-23T08:07:42.480Z,100830.91
2022-09-23T08:10:45.821Z,100831.97
2022-09-23T08:13:47.856Z,100831.94
2022-09-23T08:16:50.898Z,100826.72
2022-09-23T08:19:52.975Z,100833.84
2022-09-23T08:22:55.271Z,100825.25
2022-09-23T08:26:00.035Z,100816.41
2022-09-23T08:29:02.446Z,100827.94
2022-09-23T08:32:04.630Z,100822.78
2022-09-23T08:35:07.261Z,100818.38
2022-09-23T08:38:09.802Z,100817.59
2022-09-23T08:41:41.989Z,100820.31
2022-09-23T08:44:49.730Z,100813.34
2022-09-23T08:48:12.726Z,100815.16
2022-09-23T08:51:21.293Z,100816.87
2022-09-23T08:54:27.494Z,100816.03
2022-09-23T08:57:43.393Z,100817.88
2022-09-23T09:00:55.942Z,100813.44
2022-09-23T09:04:00.490Z,100816.06
2022-09-23T09:10:46.695Z,100813.59
2022-09-23T09:14:04.677Z,100818.84
2022-09-23T09:17:13.705Z,100821.50
2022-09-23T09:20:18.901Z,100807.56
2022-09-23T09:23:23.481Z,100819.91
2022-09-23T09:26:33.586Z,100818.19
2022-09-23T09:29:41.129Z,100808.56
2022-09-23T09:33:04.171Z,100808.62
2022-09-23T09:36:40.793Z,100806.00
2022-09-23T09:39:43.074Z,100799.91
2022-09-23T09:42:48.786Z,100803.44
2022-09-23T09:46:17.025Z,100794.69
2022-09-23T09:49:39.525Z,100781.53
2022-09-23T09:52:43.062Z,100780.66
2022-09-23T09:55:48.289Z,100782.41
2022-09-23T09:58:53.815Z,100773.66
2022-09-23T10:02:33.864Z,100772.75
2022-09-23T10:05:45.287Z,100769.25
2022-09-23T10:09:10.397Z,100768.38
2022-09-23T10:12:15.740Z,100766.63
2022-09-23T10:15:33.047Z,100764.81
2022-09-23T10:18:49.959Z,100762.16
2022-09-23T10:21:56.739Z,100765.69
2022-09-23T10:25:20.738Z,100763.88
2022-09-23T10:28:38.002Z,100765.56
2022-09-23T10:31:40.295Z,100762.03
2022-09-23T10:34:48.816Z,100762.97
2022-09-23T10:37:59.923Z,100763.84
2022-09-23T10:41:21.109Z,100768.25
2022-09-23T10:44:53.888Z,100760.34
2022-09-23T10:48:11.103Z,100755.94
2022-09-23T10:51:33.714Z,100748.87
2022-09-23T10:54:58.571Z,100747.12
2022-09-23T10:58:23.676Z,100747.22
2022-09-23T11:01:52.346Z,100753.41
2022-09-23T11:04:57.660Z,100751.63
2022-09-23T11:08:27.424Z,100742.81
2022-09-23T11:11:48.254Z,100738.47
2022-09-23T11:15:12.163Z,100727.94
2022-09-23T11:18:39.405Z,100730.53
2022-09-23T11:21:51.773Z,100727.00
2022-09-23T11:25:03.103Z,100722.59
2022-09-23T11:28:19.930Z,100719.97
2022-09-23T11:31:48.422Z,100724.28
2022-09-23T11:35:19.410Z,100717.25
2022-09-23T11:38:26.434Z,100711.16
2022-09-23T11:41:32.779Z,100704.09
2022-09-23T11:44:51.762Z,100689.94
2022-09-23T11:47:58.872Z,100704.91
2022-09-23T11:51:51.894Z,100696.16
2022-09-23T11:55:22.246Z,100695.34
2022-09-23T11:58:33.292Z,100694.44
2022-09-23T12:02:16.922Z,100695.31
2022-09-23T12:05:31.502Z,100694.47
2022-09-23T12:08:36.997Z,100692.72
2022-09-23T12:12:05.221Z,100688.37
2022-09-23T12:15:19.235Z,100693.59
2022-09-23T12:18:53.848Z,100681.28
2022-09-23T12:22:08.345Z,100676.91
2022-09-23T12:25:37.910Z,100672.50
2022-09-23T12:28:46.552Z,100669.91
2022-09-23T12:31:49.715Z,100663.78
2022-09-23T12:34:53.428Z,100667.28
2022-09-23T12:37:55.779Z,100664.63
2022-09-23T12:40:59.305Z,100653.22
2022-09-23T12:44:11.009Z,100656.72
2022-09-23T12:47:25.160Z,100651.44
2022-09-23T12:51:15.795Z,100643.44
2022-09-23T12:54:23.394Z,100644.09
2022-09-23T12:57:34.794Z,100635.31
2022-09-23T13:00:36.834Z,100635.41
2022-09-23T13:04:04.155Z,100631.91
2022-09-23T13:07:08.821Z,100627.53
2022-09-23T13:10:22.618Z,100633.63
2022-09-23T13:13:45.551Z,100625.69
2022-09-23T13:16:49.052Z,100620.41
2022-09-23T13:20:02.761Z,100614.16
2022-09-23T13:23:20.069Z,100607.84
2022-09-23T13:26:22.386Z,100617.38
2022-09-23T13:29:51.845Z,100611.25
2022-09-23T13:33:16.232Z,100613.78
2022-09-23T13:36:19.967Z,100606.63
2022-09-23T13:39:29.098Z,100610.13
2022-09-23T13:42:32.439Z,100604.22
2022-09-23T13:45:39.970Z,100607.88
2022-09-23T13:48:46.044Z,100599.97
2022-09-23T13:51:48.636Z,100596.47
2022-09-23T13:54:52.484Z,100599.94
2022-09-23T13:58:03.342Z,100597.25
2022-09-23T14:01:20.369Z,100595.47
2022-09-23T14:04:24.569Z,100599.06
2022-09-23T14:07:26.720Z,100588.66
2022-09-23T14:10:31.081Z,100598.44
2022-09-23T14:13:41.408Z,100599.37
2022-09-23T14:16:44.194Z,100588.00
2022-09-23T14:19:47.154Z,100590.69
2022-09-23T14:23:13.961Z,100586.34
2022-09-23T14:26:16.030Z,100586.44
2022-09-23T14:29:23.239Z,100577.69
2022-09-23T14:32:28.146Z,100584.75
2022-09-23T14:35:42.516Z,100580.34
2022-09-23T14:38:50.961Z,100587.38
2022-09-23T14:41:55.337Z,100582.94
2022-09-23T14:44:57.897Z,100582.03
2022-09-23T14:48:06.033Z,100580.19
2022-09-23T14:51:13.258Z,100576.63
2022-09-23T14:54:44.934Z,100569.50
2022-09-23T14:57:47.972Z,100562.34
2022-09-23T15:00:57.853Z,100553.44
2022-09-23T15:04:15.623Z,100557.72
2022-09-23T15:07:20.631Z,100554.19
2022-09-23T15:10:30.106Z,100562.94
